Welcome to our Virtual Airline
Sign-in:

Flight MFC48851

  • Submitted By: Georg Werderitsch
  • Departure Airport: Glacier Creek (KGZ)
  • Arrival Airport: Jakes Bar Airport (AK0)
  • Aircraft: BELL 206 (N040MM)
  • Flight Time: 00.32.43
  • Date Submitted: 2019/03/16
  • Route: STOP AT MAY CREEK (MYK), MCCARTHY (15Z-PAMX) AND SWIFT CREEK AIRPORT (AK31)
  • Status: Accepted
Flight Details
Gross Revenue:
(10 load / $ 58.00 per unit
$ 580.00
Fuel Cost:
(43.9985 fuel used @ 5.1 / unit)
$ 224.39

Additional Log Information:

View Log

FS[08:05] ----- Flight Opened -----
FS[08:05] Cigar Box - 1.1.4.0
FS[08:05] FS: FSX
FS[08:05] FSUIPC: v4,973
FS[08:05] Flight Number: MFC48851
FS[08:05] FS Aircraft: Bell 206B JetRanger CIRP
FS[08:05] FS Model: helicopter
FS[08:05] FS Type: JetRanger
FS[08:05] Departure: KGZ
FS[08:05] Arrival: AK0
FS[08:05] Flight Level: 5500
FS[08:05] Flight Type: H
FS[08:05] Passengers: 10
FS[08:05] FOB: 609 lbs
FS[08:05] Gate: n/a
FS[08:05] NOTE: Parking Brake Ignored
FS[08:05] Crash Detection: Disabled
FS[08:05] Crash Detection Aircraft: Disabled
FS[08:05] Engines: 1 Helo
FS[08:05] NOTE: Boarding has started
FS[08:05] Engine 1: Started
FS[08:05] Light Data: Navigation ON
FS[08:05] Light Data: Beacon ON
FS[08:05] Light Data: Strobe lights ON
FS[08:05] Main Door Closed
FS[08:05] COM1: 128.30
FS[08:05] COM2: 127.80
FS[08:05] Transponder: 1200
FS[08:05] NAV1: 113.70
FS[08:05] NAV2: 110.60
FS[08:05] ADF1: 284.0
FS[08:05] ADF2: 240.0
FS[08:05] Navigation Mode: NAV
FS[08:06] NOTE: Taxi started
FS[08:06] NOTE: ----- TAKE OFF -----
FS[08:06] GS: 31 knots
FS[08:06] TAS: 30 knots
FS[08:06] IAS: 29 knots
FS[08:06] VS: 288 fpm
FS[08:06] FOB: 608 lbs
FS[08:06] Heading: 304°
FS[08:06] Pitch: 10°
FS[08:06] Bank: 1°
FS[08:06] Aircraft Weight: 2708,25 lbs
FS[08:06] Nearest Airport: KGZ
FS[08:06] Distance: 0,04 miles
FS[08:06] Runway: ???
FS[08:06] Ground Surface: Grass Bumpy
FS[08:06] Ground Condition: Normal
FS[08:06] NOTE: Weather Report
FS[08:06] Wind Heading: 337°
FS[08:06] Wind Speed: 0 knots
FS[08:06] OAT: 10° C
FS[08:06] TAT: 10° C
FS[08:06] Precipitation: None
FS[08:06] Dew Point: 0° C
FS[08:06] Visibility: 62 miles
FS[08:06] METAR: KGZH 160653Z AUTO 35006KT 10SM BKN100 BKN120 14/03 A3024 RMK AO2 SLP238 T01390033KGZL 160655Z AUTO 00000KT 10SM CLR 00/M06 A3042 RMK AO2 LTG DSNT SKGZN 160640Z AUTO 00000KT 10SM CLR 05/M05 A3042 RMK AO2KGZS 160655Z AUTO 00000KT 10SM FEW047 01/M00 A3031 RMK A01
FS[08:06] NOTE: Climb started
FS[08:06] View Mode: Virtual Cockpit
FS[08:17] NOTE: ----- LANDED -----
FS[08:17] Landing Rate: -99,19 fpm
FS[08:17] GS: 1 knots
FS[08:17] TAS: 0 knots
FS[08:17] IAS: 0 knots
FS[08:17] VS: -104 fpm
FS[08:17] FOB: 576 lbs
FS[08:17] Heading: 350°
FS[08:17] Pitch: 0°
FS[08:17] Bank: 0°
FS[08:17] Aircraft Weight: 2676,09 lbs
FS[08:17] Nearest Airport: MYK
FS[08:17] Distance: 0,16 miles
FS[08:17] Runway: ???
FS[08:17] Ground Surface: Forest
FS[08:17] Ground Condition: Normal
FS[08:17] NOTE: Weather Report
FS[08:17] Wind Heading: 337°
FS[08:17] Wind Speed: 0 knots
FS[08:17] OAT: 11° C
FS[08:17] TAT: 11° C
FS[08:17] Precipitation: None
FS[08:17] Dew Point: 1° C
FS[08:17] Visibility: 62 miles
FS[08:17] METAR: No METAR available for AK0.
FS[08:17] View Mode: Virtual Cockpit
FS[08:17] NOTE: Taxi started
FS[08:18] View Mode: Virtual Cockpit
FS[08:28] NOTE: ----- LANDED -----
FS[08:28] Landing Rate: -61,52 fpm
FS[08:28] GS: 3 knots
FS[08:28] TAS: 0 knots
FS[08:28] IAS: 0 knots
FS[08:28] VS: -63 fpm
FS[08:28] FOB: 543 lbs
FS[08:28] Heading: 170°
FS[08:28] Pitch: 2°
FS[08:28] Bank: 0°
FS[08:28] Aircraft Weight: 2642,95 lbs
FS[08:28] Nearest Airport: AK31
FS[08:28] Distance: 0,09 miles
FS[08:28] Runway: 16 - AK31
FS[08:28] Ground Surface:
FS[08:28] Ground Condition: Normal
FS[08:28] NOTE: Weather Report
FS[08:28] Wind Heading: 337°
FS[08:28] Wind Speed: 0 knots
FS[08:28] OAT: 12° C
FS[08:28] TAT: 12° C
FS[08:28] Precipitation: None
FS[08:28] Dew Point: 2° C
FS[08:28] Visibility: 62 miles
FS[08:28] METAR: No METAR available for AK0.
FS[08:28] View Mode: Virtual Cockpit
FS[08:29] View Mode: Virtual Cockpit
FS[08:38] NOTE: ----- LANDED -----
FS[08:38] Landing Rate: -403,70 fpm
FS[08:38] GS: 0 knots
FS[08:38] TAS: 0 knots
FS[08:38] IAS: 0 knots
FS[08:38] VS: -382 fpm
FS[08:38] FOB: 513 lbs
FS[08:38] Heading: 340°
FS[08:38] Pitch: 4°
FS[08:38] Bank: 0°
FS[08:38] Aircraft Weight: 2613,69 lbs
FS[08:38] Nearest Airport: AK0
FS[08:38] Distance: 0,06 miles
FS[08:38] Runway: ???
FS[08:38] Ground Surface: Forest
FS[08:38] Ground Condition: Normal
FS[08:38] NOTE: Weather Report
FS[08:38] Wind Heading: 337°
FS[08:38] Wind Speed: 0 knots
FS[08:38] OAT: 12° C
FS[08:38] TAT: 12° C
FS[08:38] Precipitation: None
FS[08:38] Dew Point: 2° C
FS[08:38] Visibility: 62 miles
FS[08:38] METAR: No METAR available for AK0.
FS[08:38] View Mode: Virtual Cockpit
FS[08:39] Gate: n/a
FS[08:39] NOTE: Flight Completed
FS[08:39] FS Aircraft: Bell 206B JetRanger CIRP
FS[08:39] FS Model: helicopter
FS[08:39] FS Type: JetRanger
FS[08:39] FOB: 512 lbs
FS[08:39] Fuel Used: 97 lbs
FS[08:39] Flight Time: 00:32:43
FS[08:39] Flight Time (Dawn): 00:00:00
FS[08:39] Flight Time (Day): 00:32:43
FS[08:39] Flight Time (Dusk): 00:00:00
FS[08:39] Flight Time (Night): 00:00:00
FS[08:39] Total Landings: 3
FS[08:39] MaxSim Rate: 0x
FS[08:39] Cigar Box - 1.1.4.0
FS[08:39] ----- Flight Closed -----

Route Map